createdAt,value
2018-11-07T00:00:59.225Z,948.07
2018-11-07T00:01:59.215Z,948.04
2018-11-07T00:02:59.304Z,947.98
2018-11-07T00:03:59.194Z,947.98
2018-11-07T00:04:59.185Z,948.07
2018-11-07T00:05:59.172Z,948.11
2018-11-07T00:06:59.161Z,948.08
2018-11-07T00:07:59.232Z,948.05
2018-11-07T00:08:59.141Z,947.95
2018-11-07T00:09:59.128Z,947.95
2018-11-07T00:10:59.119Z,947.9
2018-11-07T00:11:59.107Z,947.95
2018-11-07T00:12:59.097Z,947.93
2018-11-07T00:13:59.100Z,947.92
2018-11-07T00:14:59.074Z,947.98
2018-11-07T00:15:59.064Z,947.94
2018-11-07T00:16:59.052Z,947.85
2018-11-07T00:17:59.043Z,947.88
2018-11-07T00:18:59.031Z,947.87
2018-11-07T00:19:59.020Z,947.91
2018-11-07T00:20:59.009Z,947.86
2018-11-07T00:21:58.998Z,947.87
2018-11-07T00:22:58.987Z,947.9
2018-11-07T00:23:58.978Z,947.9
2018-11-07T00:24:58.967Z,947.88
2018-11-07T00:25:58.954Z,947.78
2018-11-07T00:26:58.943Z,947.86
2018-11-07T00:27:58.933Z,947.95
2018-11-07T00:28:58.923Z,947.91
2018-11-07T00:29:58.918Z,947.87
2018-11-07T00:30:58.901Z,947.86
2018-11-07T00:31:58.892Z,947.92
2018-11-07T00:32:58.882Z,947.87
2018-11-07T00:33:58.867Z,947.86
2018-11-07T00:34:58.954Z,947.87
2018-11-07T00:35:58.845Z,947.9
2018-11-07T00:36:58.833Z,947.94
2018-11-07T00:37:58.824Z,947.95
2018-11-07T00:38:58.816Z,947.99
2018-11-07T00:39:58.803Z,948
2018-11-07T00:40:58.791Z,947.96
2018-11-07T00:41:58.780Z,948.01
2018-11-07T00:42:58.769Z,947.95
2018-11-07T00:43:58.760Z,947.93
2018-11-07T00:44:58.747Z,947.88
2018-11-07T00:45:58.737Z,947.91
2018-11-07T00:46:58.729Z,947.91
2018-11-07T00:47:58.715Z,947.91
2018-11-07T00:48:58.703Z,947.86
2018-11-07T00:49:58.697Z,947.89
2018-11-07T00:50:58.683Z,947.88
2018-11-07T00:51:58.671Z,947.87
2018-11-07T00:52:58.660Z,947.91
2018-11-07T00:53:58.650Z,947.86
2018-11-07T00:54:58.640Z,947.93
2018-11-07T00:55:58.627Z,947.89
2018-11-07T00:56:58.615Z,947.93
2018-11-07T00:57:58.624Z,947.93
2018-11-07T00:58:58.594Z,947.93
2018-11-07T00:59:58.584Z,947.96
2018-11-07T01:00:58.577Z,947.98
2018-11-07T01:01:58.562Z,947.97
2018-11-07T01:02:58.555Z,947.96
2018-11-07T01:03:58.541Z,947.96
2018-11-07T01:04:58.528Z,947.96
2018-11-07T01:05:58.518Z,947.95
2018-11-07T01:06:58.507Z,947.89
2018-11-07T01:07:58.496Z,947.92
2018-11-07T01:08:58.487Z,947.9
2018-11-07T01:09:58.474Z,947.86
2018-11-07T01:10:58.462Z,947.83
2018-11-07T01:11:58.452Z,947.86
2018-11-07T01:12:58.442Z,947.86
2018-11-07T01:13:58.429Z,947.89
2018-11-07T01:14:58.419Z,947.9
2018-11-07T01:15:58.410Z,947.88
2018-11-07T01:16:58.398Z,947.89
2018-11-07T01:17:58.386Z,947.92
2018-11-07T01:18:58.374Z,947.95
2018-11-07T01:19:58.364Z,947.89
2018-11-07T01:20:58.364Z,947.94
2018-11-07T01:21:58.342Z,947.94
2018-11-07T01:22:58.332Z,947.85
2018-11-07T01:23:58.321Z,947.89
2018-11-07T01:24:58.308Z,947.88
2018-11-07T01:25:58.296Z,947.89
2018-11-07T01:26:58.286Z,947.92
2018-11-07T01:27:58.329Z,947.88
2018-11-07T01:28:58.265Z,947.91
2018-11-07T01:29:58.259Z,947.94
2018-11-07T01:30:58.245Z,947.97
2018-11-07T01:31:58.233Z,947.94
2018-11-07T01:32:58.223Z,947.93
2018-11-07T01:33:58.212Z,947.97
2018-11-07T01:34:58.200Z,947.95
2018-11-07T01:35:58.188Z,948.01
2018-11-07T01:36:58.177Z,948
2018-11-07T01:37:58.169Z,947.99
2018-11-07T01:38:58.154Z,948.06
2018-11-07T01:39:58.144Z,948.05
2018-11-07T01:40:58.133Z,948.08
2018-11-07T01:41:58.142Z,948.14
2018-11-07T01:42:58.110Z,948.09
2018-11-07T01:43:58.101Z,948.09
2018-11-07T01:44:58.089Z,948.15
2018-11-07T01:45:58.081Z,948.15
2018-11-07T01:46:58.067Z,948.21
2018-11-07T01:47:58.055Z,948.21
2018-11-07T01:48:58.045Z,948.27
2018-11-07T01:49:58.033Z,948.26
2018-11-07T01:50:58.022Z,948.33
2018-11-07T01:51:58.012Z,948.28
2018-11-07T01:52:58.001Z,948.3
2018-11-07T01:53:57.988Z,948.32
2018-11-07T01:54:57.980Z,948.34
2018-11-07T01:55:57.968Z,948.35
2018-11-07T01:56:57.956Z,948.33
2018-11-07T01:57:57.943Z,948.35
2018-11-07T01:58:57.937Z,948.36
2018-11-07T01:59:57.926Z,948.35
2018-11-07T02:00:57.913Z,948.29
2018-11-07T02:01:57.899Z,948.34
2018-11-07T02:02:57.890Z,948.31
2018-11-07T02:03:57.909Z,948.26
2018-11-07T02:04:57.866Z,948.28
2018-11-07T02:05:57.856Z,948.28
2018-11-07T02:06:57.843Z,948.32
2018-11-07T02:07:57.834Z,948.33
2018-11-07T02:08:57.822Z,948.35
2018-11-07T02:09:57.811Z,948.36
2018-11-07T02:10:57.800Z,948.39
2018-11-07T02:11:57.787Z,948.4
2018-11-07T02:12:57.777Z,948.41
2018-11-07T02:13:57.767Z,948.41
2018-11-07T02:14:57.755Z,948.41
2018-11-07T02:15:57.743Z,948.41
2018-11-07T02:16:57.732Z,948.39
2018-11-07T02:17:57.722Z,948.41
2018-11-07T02:18:57.716Z,948.4
2018-11-07T02:19:57.697Z,948.42
2018-11-07T02:20:57.688Z,948.39
2018-11-07T02:21:57.676Z,948.43
2018-11-07T02:22:57.664Z,948.41
2018-11-07T02:23:57.652Z,948.41
2018-11-07T02:24:57.641Z,948.44
2018-11-07T02:25:57.631Z,948.43
2018-11-07T02:26:57.619Z,948.43
2018-11-07T02:27:57.607Z,948.43
2018-11-07T02:28:57.596Z,948.49
2018-11-07T02:29:57.585Z,948.52
2018-11-07T02:30:57.578Z,948.53
2018-11-07T02:31:57.579Z,948.51
2018-11-07T02:32:57.550Z,948.57
2018-11-07T02:33:57.541Z,948.58
2018-11-07T02:34:57.527Z,948.56
2018-11-07T02:35:57.517Z,948.59
2018-11-07T02:36:57.603Z,948.58
2018-11-07T02:37:57.493Z,948.54
2018-11-07T02:38:57.481Z,948.57
2018-11-07T02:39:57.470Z,948.56
2018-11-07T02:40:57.459Z,948.59
2018-11-07T02:41:57.521Z,948.56
2018-11-07T02:42:57.443Z,948.58
2018-11-07T02:43:57.424Z,948.6
2018-11-07T02:44:57.411Z,948.65
2018-11-07T02:45:57.401Z,948.58
2018-11-07T02:46:57.390Z,948.61
2018-11-07T02:47:57.379Z,948.57
2018-11-07T02:48:57.367Z,948.58
2018-11-07T02:49:57.357Z,948.56
2018-11-07T02:50:57.354Z,948.54
2018-11-07T02:51:57.333Z,948.49
2018-11-07T02:52:57.322Z,948.54
2018-11-07T02:53:57.309Z,948.51
2018-11-07T02:54:57.299Z,948.53
2018-11-07T02:55:57.286Z,948.52
2018-11-07T02:56:57.278Z,948.48
2018-11-07T02:57:57.266Z,948.45
2018-11-07T02:58:57.254Z,948.45
2018-11-07T02:59:57.240Z,948.48
2018-11-07T03:00:57.280Z,948.49
2018-11-07T03:01:57.222Z,948.44
2018-11-07T03:02:57.205Z,948.48
2018-11-07T03:03:57.196Z,948.49
2018-11-07T03:04:57.184Z,948.4
2018-11-07T03:05:57.173Z,948.43
2018-11-07T03:06:57.171Z,948.48
2018-11-07T03:07:57.150Z,948.43
2018-11-07T03:08:57.138Z,948.44
2018-11-07T03:09:57.177Z,948.42
2018-11-07T03:10:57.112Z,948.41
2018-11-07T03:11:57.101Z,948.38
2018-11-07T03:12:57.091Z,948.39
2018-11-07T03:13:57.081Z,948.38
2018-11-07T03:14:57.066Z,948.4
2018-11-07T03:15:57.065Z,948.36
2018-11-07T03:16:57.043Z,948.41
2018-11-07T03:17:57.032Z,948.39
2018-11-07T03:18:57.021Z,948.39
2018-11-07T03:19:57.013Z,948.38
2018-11-07T03:20:57.002Z,948.39
2018-11-07T03:21:56.985Z,948.34
2018-11-07T03:22:56.974Z,948.38
2018-11-07T03:23:56.963Z,948.32
2018-11-07T03:24:56.952Z,948.36
2018-11-07T03:25:56.942Z,948.32
2018-11-07T03:26:56.929Z,948.32
2018-11-07T03:27:56.916Z,948.3
2018-11-07T03:28:56.908Z,948.31
2018-11-07T03:29:56.896Z,948.31
2018-11-07T03:30:56.882Z,948.29
2018-11-07T03:31:56.886Z,948.3
2018-11-07T03:32:56.858Z,948.24
2018-11-07T03:33:56.846Z,948.29
2018-11-07T03:34:56.836Z,948.33
2018-11-07T03:35:56.823Z,948.33
2018-11-07T03:36:56.812Z,948.32
2018-11-07T03:37:56.799Z,948.33
2018-11-07T03:38:56.788Z,948.31
2018-11-07T03:39:56.871Z,948.33
2018-11-07T03:40:56.764Z,948.29
2018-11-07T03:41:56.752Z,948.33
2018-11-07T03:42:56.740Z,948.36
2018-11-07T03:43:56.728Z,948.35
2018-11-07T03:44:56.716Z,948.44
2018-11-07T03:45:56.704Z,948.42
2018-11-07T03:46:56.692Z,948.51
2018-11-07T03:47:56.679Z,948.53
2018-11-07T03:48:56.674Z,948.49
2018-11-07T03:49:56.658Z,948.52
2018-11-07T03:50:56.645Z,948.59
2018-11-07T03:51:56.634Z,948.58
2018-11-07T03:52:56.708Z,948.58
2018-11-07T03:53:56.610Z,948.57
2018-11-07T03:54:56.597Z,948.6
2018-11-07T03:55:56.597Z,948.64
2018-11-07T03:56:56.574Z,948.6
2018-11-07T03:57:56.565Z,948.62
2018-11-07T03:58:56.551Z,948.57
2018-11-07T03:59:56.538Z,948.57
2018-11-07T04:00:56.527Z,948.6
2018-11-07T04:01:56.514Z,948.59
2018-11-07T04:02:56.502Z,948.64
2018-11-07T04:03:56.491Z,948.63
2018-11-07T04:04:56.483Z,948.66
2018-11-07T04:05:56.466Z,948.73
2018-11-07T04:06:56.456Z,948.66
2018-11-07T04:07:56.442Z,948.72
2018-11-07T04:08:56.430Z,948.71
2018-11-07T04:09:56.418Z,948.74
2018-11-07T04:10:56.407Z,948.74
2018-11-07T04:11:56.394Z,948.72
2018-11-07T04:12:56.382Z,948.78
2018-11-07T04:13:56.371Z,948.78
2018-11-07T04:14:56.357Z,948.77
2018-11-07T04:15:56.346Z,948.84
2018-11-07T04:16:56.334Z,948.82
2018-11-07T04:17:56.322Z,948.8
2018-11-07T04:18:56.311Z,948.77
2018-11-07T04:19:56.302Z,948.78
2018-11-07T04:20:56.285Z,948.78
2018-11-07T04:21:56.273Z,948.78
2018-11-07T04:22:56.262Z,948.79
2018-11-07T04:23:56.249Z,948.81
2018-11-07T04:24:56.238Z,948.83
2018-11-07T04:25:56.225Z,948.78
2018-11-07T04:26:56.214Z,948.75
2018-11-07T04:27:56.201Z,948.77
2018-11-07T04:28:56.189Z,948.75
2018-11-07T04:29:56.176Z,948.69
2018-11-07T04:30:56.164Z,948.72
2018-11-07T04:31:56.153Z,948.72
2018-11-07T04:32:56.144Z,948.74
2018-11-07T04:33:56.131Z,948.72
2018-11-07T04:34:56.118Z,948.68
2018-11-07T04:35:56.105Z,948.69
2018-11-07T04:36:56.097Z,948.67
2018-11-07T04:37:56.081Z,948.67
2018-11-07T04:38:56.079Z,948.68
2018-11-07T04:39:56.058Z,948.67
2018-11-07T04:40:56.046Z,948.69
2018-11-07T04:41:56.032Z,948.73
2018-11-07T04:42:56.022Z,948.71
2018-11-07T04:43:56.010Z,948.66
2018-11-07T04:44:55.998Z,948.69
2018-11-07T04:45:55.984Z,948.68
2018-11-07T04:46:55.973Z,948.68
2018-11-07T04:47:55.961Z,948.66
2018-11-07T04:48:55.951Z,948.75
2018-11-07T04:49:55.937Z,948.74
2018-11-07T04:50:55.927Z,948.8
2018-11-07T04:51:55.916Z,948.78
2018-11-07T04:52:55.908Z,948.83
2018-11-07T04:53:55.889Z,948.82
2018-11-07T04:54:55.877Z,948.83
2018-11-07T04:55:55.866Z,948.87
2018-11-07T04:56:55.852Z,948.81
2018-11-07T04:57:55.840Z,948.87
2018-11-07T04:58:55.828Z,948.9
2018-11-07T04:59:55.848Z,948.91
2018-11-07T05:00:55.805Z,948.92
2018-11-07T05:01:55.792Z,948.93
2018-11-07T05:02:55.781Z,948.91
2018-11-07T05:03:55.768Z,948.95
2018-11-07T05:04:55.757Z,948.96
2018-11-07T05:05:55.744Z,948.99
2018-11-07T05:06:55.734Z,948.95
2018-11-07T05:07:55.766Z,948.96
2018-11-07T05:08:55.707Z,949
2018-11-07T05:09:55.696Z,949
2018-11-07T05:10:55.683Z,948.96
2018-11-07T05:11:55.674Z,948.96
2018-11-07T05:12:55.660Z,948.97
2018-11-07T05:13:55.648Z,949.03
2018-11-07T05:14:55.635Z,949.02
2018-11-07T05:15:55.625Z,949.04
2018-11-07T05:16:55.613Z,949.01
2018-11-07T05:17:55.600Z,949.02
2018-11-07T05:18:55.590Z,949.04
2018-11-07T05:19:55.575Z,949
2018-11-07T05:20:55.561Z,948.96
2018-11-07T05:21:55.550Z,948.98
2018-11-07T05:22:55.538Z,949
2018-11-07T05:23:55.527Z,949.02
2018-11-07T05:24:55.515Z,949
2018-11-07T05:25:55.502Z,948.97
2018-11-07T05:26:55.490Z,948.99
2018-11-07T05:27:55.477Z,948.97
2018-11-07T05:28:55.465Z,948.98
2018-11-07T05:29:55.452Z,948.96
2018-11-07T05:30:55.441Z,948.95
2018-11-07T05:31:55.550Z,948.95
2018-11-07T05:32:55.420Z,948.97
2018-11-07T05:33:55.403Z,948.93
2018-11-07T05:34:55.392Z,948.95
2018-11-07T05:35:55.380Z,948.93
2018-11-07T05:36:55.368Z,948.92
2018-11-07T05:37:55.355Z,948.95
2018-11-07T05:38:55.343Z,948.96
2018-11-07T05:39:55.331Z,948.94
2018-11-07T05:40:55.385Z,948.98
2018-11-07T05:41:55.305Z,948.97
2018-11-07T05:42:55.292Z,949.01
2018-11-07T05:43:55.283Z,949.03
2018-11-07T05:44:55.267Z,949.02
2018-11-07T05:45:55.254Z,949.04
2018-11-07T05:46:55.243Z,949.02
2018-11-07T05:47:55.231Z,949
2018-11-07T05:48:55.219Z,949.02
2018-11-07T05:49:55.207Z,949.03
2018-11-07T05:50:55.193Z,949.02
2018-11-07T05:51:55.179Z,949.04
2018-11-07T05:52:55.168Z,949.1
2018-11-07T05:53:55.155Z,949.12
2018-11-07T05:54:55.142Z,949.12
2018-11-07T05:55:55.129Z,949.14
2018-11-07T05:56:55.117Z,949.15
2018-11-07T05:57:55.109Z,949.13
2018-11-07T05:58:55.092Z,949.16
2018-11-07T05:59:55.080Z,949.18
2018-11-07T06:00:55.068Z,949.18
2018-11-07T06:01:55.056Z,949.17
2018-11-07T06:02:55.043Z,949.15
2018-11-07T06:03:55.029Z,949.19
2018-11-07T06:04:55.018Z,949.2
2018-11-07T06:05:55.004Z,949.2
2018-11-07T06:06:54.993Z,949.2
2018-11-07T06:07:54.981Z,949.19
2018-11-07T06:08:54.969Z,949.2
2018-11-07T06:09:54.955Z,949.2
2018-11-07T06:10:54.944Z,949.19
2018-11-07T06:11:54.933Z,949.19
2018-11-07T06:12:54.920Z,949.21
2018-11-07T06:13:54.912Z,949.21
2018-11-07T06:14:54.896Z,949.25
2018-11-07T06:15:54.932Z,949.18
2018-11-07T06:16:54.871Z,949.2
2018-11-07T06:17:54.860Z,949.19
2018-11-07T06:18:54.847Z,949.18
2018-11-07T06:19:54.835Z,949.18
2018-11-07T06:20:54.822Z,949.19
2018-11-07T06:21:54.822Z,949.18
2018-11-07T06:22:54.815Z,949.16
2018-11-07T06:23:54.785Z,949.17
2018-11-07T06:24:55.077Z,949.21
2018-11-07T06:25:54.761Z,949.16
2018-11-07T06:26:54.750Z,949.16
2018-11-07T06:27:54.736Z,949.17
2018-11-07T06:28:54.725Z,949.18
2018-11-07T06:29:54.711Z,949.14
2018-11-07T06:30:54.702Z,949.13
2018-11-07T06:31:54.687Z,949.15
2018-11-07T06:32:54.676Z,949.14
2018-11-07T06:33:54.708Z,949.14
2018-11-07T06:34:54.652Z,949.1
2018-11-07T06:35:54.641Z,949.1
2018-11-07T06:36:54.629Z,949.14
2018-11-07T06:37:54.614Z,949.1
2018-11-07T06:38:54.602Z,949.19
2018-11-07T06:39:54.591Z,949.09
2018-11-07T06:40:54.579Z,949.1
2018-11-07T06:41:54.568Z,949.05
2018-11-07T06:42:54.558Z,949.09
2018-11-07T06:43:54.543Z,949.08
2018-11-07T06:44:54.530Z,949.07
2018-11-07T06:45:54.518Z,949.07
2018-11-07T06:46:54.507Z,949.13
2018-11-07T06:47:54.495Z,949.14
2018-11-07T06:48:54.483Z,949.17
2018-11-07T06:49:54.471Z,949.19
2018-11-07T06:50:54.458Z,949.19
2018-11-07T06:51:54.448Z,949.23
2018-11-07T06:52:54.437Z,949.21
2018-11-07T06:53:54.422Z,949.2
2018-11-07T06:54:54.411Z,949.24
2018-11-07T06:55:54.400Z,949.27
2018-11-07T06:56:54.387Z,949.26
2018-11-07T06:57:54.376Z,949.24
2018-11-07T06:58:54.367Z,949.26
2018-11-07T06:59:54.353Z,949.25
2018-11-07T07:00:54.340Z,949.27
2018-11-07T07:01:54.328Z,949.24
2018-11-07T07:02:54.318Z,949.22
2018-11-07T07:03:54.305Z,949.26
2018-11-07T07:04:54.293Z,949.3
2018-11-07T07:05:54.284Z,949.28
2018-11-07T07:06:54.270Z,949.31
2018-11-07T07:07:54.257Z,949.36
2018-11-07T07:08:54.246Z,949.36
2018-11-07T07:09:54.233Z,949.44
2018-11-07T07:10:54.221Z,949.45
2018-11-07T07:11:54.210Z,949.45
2018-11-07T07:12:54.198Z,949.49
2018-11-07T07:13:54.187Z,949.51
2018-11-07T07:14:54.189Z,949.59
2018-11-07T07:15:54.163Z,949.52
2018-11-07T07:16:54.150Z,949.53
2018-11-07T07:17:54.196Z,949.6
2018-11-07T07:18:54.129Z,949.61
2018-11-07T07:19:54.115Z,949.6
2018-11-07T07:20:54.105Z,949.53
2018-11-07T07:21:54.093Z,949.53
2018-11-07T07:22:54.080Z,949.56
2018-11-07T07:23:54.070Z,949.55
2018-11-07T07:24:54.058Z,949.52
2018-11-07T07:25:54.051Z,949.49
2018-11-07T07:26:54.035Z,949.47
2018-11-07T07:27:54.023Z,949.49
2018-11-07T07:28:54.012Z,949.42
2018-11-07T07:29:54.076Z,949.43
2018-11-07T07:30:53.989Z,949.47
2018-11-07T07:31:53.977Z,949.47
2018-11-07T07:32:53.988Z,949.47
2018-11-07T07:33:53.953Z,949.54
2018-11-07T07:34:53.945Z,949.49
2018-11-07T07:35:53.931Z,949.53
2018-11-07T07:36:53.920Z,949.52
2018-11-07T07:37:53.907Z,949.5
2018-11-07T07:38:53.895Z,949.55
2018-11-07T07:39:53.884Z,949.53
2018-11-07T07:40:53.872Z,949.57
2018-11-07T07:41:53.861Z,949.6
2018-11-07T07:42:53.850Z,949.57
2018-11-07T07:43:53.839Z,949.61
2018-11-07T07:44:53.826Z,949.61
2018-11-07T07:45:53.815Z,949.59
2018-11-07T07:46:53.804Z,949.54
2018-11-07T07:47:53.792Z,949.54
2018-11-07T07:48:53.787Z,949.55
2018-11-07T07:49:53.772Z,949.49
2018-11-07T07:50:53.761Z,949.52
2018-11-07T07:51:53.749Z,949.53
2018-11-07T07:52:53.766Z,949.58
2018-11-07T07:53:53.726Z,949.54
2018-11-07T07:54:53.716Z,949.55
2018-11-07T07:55:53.704Z,949.53
2018-11-07T07:56:53.694Z,949.53
2018-11-07T07:57:53.682Z,949.5
2018-11-07T07:58:53.669Z,949.53
2018-11-07T07:59:53.658Z,949.52
2018-11-07T08:00:53.649Z,949.52
2018-11-07T08:01:53.637Z,949.54
2018-11-07T08:02:53.624Z,949.49
2018-11-07T08:03:53.613Z,949.53
2018-11-07T08:04:53.601Z,949.51
2018-11-07T08:05:53.592Z,949.52
2018-11-07T08:06:53.710Z,949.5
2018-11-07T08:07:53.572Z,949.54
2018-11-07T08:08:53.559Z,949.59
2018-11-07T08:09:53.549Z,949.59
2018-11-07T08:10:53.535Z,949.58
2018-11-07T08:11:53.526Z,949.54
2018-11-07T08:12:53.518Z,949.61
2018-11-07T08:13:53.599Z,949.59
2018-11-07T08:14:53.493Z,949.55
2018-11-07T08:15:53.480Z,949.57
2018-11-07T08:16:53.471Z,949.62
2018-11-07T08:17:53.458Z,949.56
2018-11-07T08:18:53.448Z,949.58
2018-11-07T08:19:53.438Z,949.59
2018-11-07T08:20:53.427Z,949.59
2018-11-07T08:21:53.415Z,949.58
2018-11-07T08:22:53.404Z,949.62
2018-11-07T08:23:53.394Z,949.61
2018-11-07T08:24:53.384Z,949.58
2018-11-07T08:25:53.381Z,949.58
2018-11-07T08:26:53.361Z,949.59
2018-11-07T08:27:53.352Z,949.53
2018-11-07T08:28:53.340Z,949.59
2018-11-07T08:29:53.328Z,949.59
2018-11-07T08:30:53.440Z,949.6
2018-11-07T08:31:53.306Z,949.57
2018-11-07T08:32:53.296Z,949.65
2018-11-07T08:33:53.284Z,949.66
2018-11-07T08:34:53.275Z,949.64
2018-11-07T08:35:53.262Z,949.68
2018-11-07T08:36:53.255Z,949.7
2018-11-07T08:37:53.254Z,949.7
2018-11-07T08:38:53.232Z,949.72
2018-11-07T08:39:53.220Z,949.76
2018-11-07T08:40:53.210Z,949.73
2018-11-07T08:41:53.199Z,949.73
2018-11-07T08:42:53.189Z,949.78
2018-11-07T08:43:53.178Z,949.79
2018-11-07T08:44:53.171Z,949.83
2018-11-07T08:45:53.154Z,949.82
2018-11-07T08:46:53.144Z,949.85
2018-11-07T08:47:53.161Z,949.85
2018-11-07T08:48:53.123Z,949.86
2018-11-07T08:49:53.115Z,949.89
2018-11-07T08:50:53.102Z,949.88
2018-11-07T08:51:53.094Z,949.91
2018-11-07T08:52:53.081Z,949.89
2018-11-07T08:53:53.070Z,949.91
2018-11-07T08:54:53.096Z,949.89
2018-11-07T08:55:53.050Z,949.86
2018-11-07T08:56:53.039Z,949.88
2018-11-07T08:57:53.026Z,949.89
2018-11-07T08:58:53.017Z,949.87
2018-11-07T08:59:53.007Z,949.88
2018-11-07T09:00:52.997Z,949.87
2018-11-07T09:01:52.986Z,949.89
2018-11-07T09:02:52.977Z,949.85
2018-11-07T09:03:52.967Z,949.9
2018-11-07T09:04:52.956Z,949.9
2018-11-07T09:05:52.943Z,949.93
2018-11-07T09:06:52.935Z,949.91
2018-11-07T09:07:52.927Z,949.93
2018-11-07T09:08:52.913Z,949.98
2018-11-07T09:09:52.903Z,949.97
2018-11-07T09:10:52.893Z,949.96
2018-11-07T09:11:52.885Z,949.95
2018-11-07T09:12:52.872Z,949.95
2018-11-07T09:13:52.862Z,949.98
2018-11-07T09:14:52.856Z,950
2018-11-07T09:15:52.846Z,950.01
2018-11-07T09:16:52.832Z,949.99
2018-11-07T09:17:52.828Z,950.01
2018-11-07T09:18:52.813Z,950.05
2018-11-07T09:19:52.854Z,950
2018-11-07T09:20:52.794Z,949.98
2018-11-07T09:21:52.787Z,949.99
2018-11-07T09:22:52.780Z,950
2018-11-07T09:23:52.763Z,949.96
2018-11-07T09:24:52.754Z,950
2018-11-07T09:25:52.744Z,950
2018-11-07T09:26:52.733Z,950.02
2018-11-07T09:27:52.725Z,950.04
2018-11-07T09:28:52.713Z,950.01
2018-11-07T09:29:52.705Z,950.01
2018-11-07T09:30:52.694Z,949.96
2018-11-07T09:31:52.684Z,950
2018-11-07T09:32:52.673Z,949.97
2018-11-07T09:33:52.664Z,949.93
2018-11-07T09:34:52.655Z,949.95
2018-11-07T09:35:52.644Z,949.91
2018-11-07T09:36:52.635Z,949.85
2018-11-07T09:37:52.625Z,949.9
2018-11-07T09:38:52.615Z,949.82
2018-11-07T09:39:52.607Z,949.89
2018-11-07T09:40:52.594Z,949.89
2018-11-07T09:41:52.587Z,949.84
2018-11-07T09:42:52.576Z,949.83
2018-11-07T09:43:52.567Z,949.86
2018-11-07T09:44:52.559Z,949.87
2018-11-07T09:45:52.548Z,949.9
2018-11-07T09:46:52.537Z,949.92
2018-11-07T09:47:52.533Z,949.94
2018-11-07T09:48:52.517Z,949.96
2018-11-07T09:49:52.509Z,949.99
2018-11-07T09:50:52.500Z,949.95
2018-11-07T09:51:52.490Z,949.98
2018-11-07T09:52:52.480Z,950.05
2018-11-07T09:53:52.589Z,950.06
2018-11-07T09:54:52.461Z,950.08
2018-11-07T09:55:52.451Z,950.07
2018-11-07T09:56:52.443Z,950.13
2018-11-07T09:57:52.432Z,950.11
2018-11-07T09:58:52.423Z,950.12
2018-11-07T09:59:52.413Z,950.18
2018-11-07T10:00:52.405Z,950.21
2018-11-07T10:01:52.394Z,950.26
2018-11-07T10:02:52.385Z,950.28
2018-11-07T10:03:52.377Z,950.26
2018-11-07T10:04:52.367Z,950.34
2018-11-07T10:05:52.358Z,950.31
2018-11-07T10:06:52.348Z,950.32
2018-11-07T10:07:52.338Z,950.33
2018-11-07T10:08:52.330Z,950.36
2018-11-07T10:09:52.320Z,950.4
2018-11-07T10:10:52.312Z,950.39
2018-11-07T10:11:52.303Z,950.38
2018-11-07T10:12:52.292Z,950.35
2018-11-07T10:13:52.284Z,950.39
2018-11-07T10:14:52.274Z,950.35
2018-11-07T10:15:52.265Z,950.38
2018-11-07T10:16:52.256Z,950.4
2018-11-07T10:17:52.247Z,950.41
2018-11-07T10:18:52.239Z,950.4
2018-11-07T10:19:52.228Z,950.41
2018-11-07T10:20:52.221Z,950.41
2018-11-07T10:21:52.210Z,950.37
2018-11-07T10:22:52.200Z,950.32
2018-11-07T10:23:52.193Z,950.28
2018-11-07T10:24:52.184Z,950.32
2018-11-07T10:25:52.174Z,950.27
2018-11-07T10:26:52.316Z,950.33
2018-11-07T10:27:52.650Z,950.31
2018-11-07T10:28:52.426Z,950.3
2018-11-07T10:29:52.484Z,950.28
2018-11-07T10:30:52.131Z,950.22
2018-11-07T10:31:52.123Z,950.29
2018-11-07T10:32:52.113Z,950.22
2018-11-07T10:33:52.105Z,950.26
2018-11-07T10:34:52.101Z,950.33
2018-11-07T10:35:52.091Z,950.29
2018-11-07T10:36:52.079Z,950.32
2018-11-07T10:37:52.147Z,950.32
2018-11-07T10:38:52.072Z,950.34
2018-11-07T10:39:52.121Z,950.36
2018-11-07T10:40:52.045Z,950.33
2018-11-07T10:41:52.037Z,950.34
2018-11-07T10:42:52.028Z,950.4
2018-11-07T10:43:52.132Z,950.33
2018-11-07T10:44:52.017Z,950.31
2018-11-07T10:45:52.018Z,950.33
2018-11-07T10:46:51.994Z,950.3
2018-11-07T10:47:51.988Z,950.31
2018-11-07T10:48:51.988Z,950.29
2018-11-07T10:49:51.974Z,950.28
2018-11-07T10:50:51.958Z,950.28
2018-11-07T10:51:51.974Z,950.3
2018-11-07T10:52:51.942Z,950.31
2018-11-07T10:53:51.935Z,950.26
2018-11-07T10:54:51.925Z,950.25
2018-11-07T10:55:51.917Z,950.28
2018-11-07T10:56:51.909Z,950.33
2018-11-07T10:57:51.904Z,950.3
2018-11-07T10:58:51.893Z,950.31
2018-11-07T10:59:51.884Z,950.24
2018-11-07T11:00:51.876Z,950.27
2018-11-07T11:01:51.868Z,950.25
2018-11-07T11:02:51.858Z,950.28
2018-11-07T11:03:51.850Z,950.27
2018-11-07T11:04:51.862Z,950.28
2018-11-07T11:05:51.832Z,950.25
2018-11-07T11:06:51.825Z,950.28
2018-11-07T11:07:51.817Z,950.26
2018-11-07T11:08:51.807Z,950.24
2018-11-07T11:09:51.799Z,950.21
2018-11-07T11:10:51.790Z,950.27
2018-11-07T11:11:51.784Z,950.22
2018-11-07T11:12:51.776Z,950.24
2018-11-07T11:13:51.777Z,950.26
2018-11-07T11:14:51.762Z,950.21
2018-11-07T11:15:51.748Z,950.28
2018-11-07T11:16:51.849Z,950.21
2018-11-07T11:17:51.732Z,950.24
2018-11-07T11:18:51.723Z,950.23
2018-11-07T11:19:51.713Z,950.23
2018-11-07T11:20:51.704Z,950.25
2018-11-07T11:21:51.697Z,950.21
2018-11-07T11:22:51.691Z,950.18
2018-11-07T11:23:51.679Z,950.22
2018-11-07T11:24:51.673Z,950.25
2018-11-07T11:25:51.724Z,950.24
2018-11-07T11:26:51.656Z,950.24
2018-11-07T11:27:51.647Z,950.22
2018-11-07T11:28:51.639Z,950.23
2018-11-07T11:29:51.638Z,950.23
2018-11-07T11:30:51.621Z,950.23
2018-11-07T11:31:51.613Z,950.18
2018-11-07T11:32:51.605Z,950.2
2018-11-07T11:33:51.689Z,950.21
2018-11-07T11:34:51.709Z,950.23
2018-11-07T11:35:51.581Z,950.2
2018-11-07T11:36:51.579Z,950.19
2018-11-07T11:37:51.565Z,950.22
2018-11-07T11:38:51.556Z,950.23
2018-11-07T11:39:51.549Z,950.25
2018-11-07T11:40:51.584Z,950.28
2018-11-07T11:41:51.532Z,950.28
2018-11-07T11:42:51.524Z,950.23
2018-11-07T11:43:51.517Z,950.24
2018-11-07T11:44:51.508Z,950.28
2018-11-07T11:45:51.500Z,950.27
2018-11-07T11:46:51.492Z,950.27
2018-11-07T11:47:51.484Z,950.33
2018-11-07T11:48:51.507Z,950.28
2018-11-07T11:49:51.469Z,950.28
2018-11-07T11:50:51.462Z,950.29
2018-11-07T11:51:51.453Z,950.28
2018-11-07T11:52:51.446Z,950.29
2018-11-07T11:53:51.437Z,950.25
2018-11-07T11:54:51.429Z,950.29
2018-11-07T11:55:51.422Z,950.29
2018-11-07T11:56:51.413Z,950.27
2018-11-07T11:57:51.407Z,950.32
2018-11-07T11:58:51.499Z,950.24
2018-11-07T11:59:51.745Z,950.23
2018-11-07T12:00:51.383Z,950.23
2018-11-07T12:01:51.376Z,950.22
2018-11-07T12:02:51.367Z,950.22
2018-11-07T12:03:51.362Z,950.19
2018-11-07T12:04:51.351Z,950.18
2018-11-07T12:05:51.343Z,950.18
2018-11-07T12:06:51.336Z,950.17
2018-11-07T12:07:51.327Z,950.14
2018-11-07T12:08:51.387Z,950.17
2018-11-07T12:09:51.314Z,950.16
2018-11-07T12:10:51.304Z,950.15
2018-11-07T12:11:51.337Z,950.13
2018-11-07T12:12:51.291Z,950.2
2018-11-07T12:13:51.282Z,950.17
2018-11-07T12:14:51.275Z,950.19
2018-11-07T12:15:51.267Z,950.17
2018-11-07T12:16:51.261Z,950.17
2018-11-07T12:17:51.251Z,950.15
2018-11-07T12:18:51.243Z,950.15
2018-11-07T12:19:51.235Z,950.21
2018-11-07T12:20:51.227Z,950.16
2018-11-07T12:21:51.220Z,950.23
2018-11-07T12:22:51.211Z,950.21
2018-11-07T12:23:51.204Z,950.21
2018-11-07T12:24:51.197Z,950.18
2018-11-07T12:25:51.191Z,950.17
2018-11-07T12:26:51.250Z,950.18
2018-11-07T12:27:51.173Z,950.15
2018-11-07T12:28:51.166Z,950.06
2018-11-07T12:29:51.158Z,950.06
2018-11-07T12:30:51.150Z,950.07
2018-11-07T12:31:51.143Z,950.08